createdAt,value
2015-02-21T12:17:04.634Z,0
2015-02-21T12:17:39.313Z,0
2015-02-21T12:17:49.726Z,0
2015-02-21T12:18:20.323Z,0
2015-02-21T12:19:44.351Z,0
2015-02-21T12:20:13.740Z,30
2015-02-21T12:20:40.058Z,31
2015-02-21T12:20:52.827Z,32
2015-02-21T12:21:03.274Z,32
2015-02-21T12:21:13.609Z,32
2015-02-21T12:21:24.174Z,31
2015-02-21T12:21:33.831Z,31
2015-02-21T12:21:43.513Z,31
2015-02-21T12:21:53.121Z,31
2015-02-21T12:22:02.764Z,31
2015-02-21T12:22:12.426Z,31
2015-02-21T12:22:22.637Z,31
2015-02-21T12:22:32.524Z,84
2015-02-21T12:22:42.495Z,100
2015-02-21T12:22:52.235Z,100
2015-02-21T12:23:04.152Z,100
2015-02-21T12:23:17.912Z,100
2015-02-21T12:23:27.608Z,100
2015-02-21T12:23:37.282Z,100
2015-02-21T12:23:47.344Z,98
2015-02-21T12:23:57.928Z,94
2015-02-21T12:24:07.962Z,90
2015-02-21T12:24:17.491Z,89
2015-02-21T12:24:27.412Z,76
2015-02-21T12:24:37.855Z,70
2015-02-21T12:24:47.645Z,69
2015-02-21T12:24:57.647Z,56
2015-02-21T12:25:16.435Z,41
2015-02-21T12:25:29.230Z,35
2015-02-21T12:25:39.608Z,33
2015-02-21T12:25:49.370Z,32
2015-02-21T12:26:01.129Z,33
2015-02-21T12:26:10.877Z,32
2015-02-21T12:26:20.455Z,32
2015-02-21T12:26:30.128Z,32
2015-02-21T12:26:39.797Z,32
2015-02-21T12:26:49.468Z,32
2015-02-21T12:26:59.863Z,31
2015-02-21T12:27:09.689Z,31
2015-02-21T12:27:20.118Z,31
2015-02-21T12:27:29.877Z,31
2015-02-21T12:27:39.702Z,31
2015-02-21T12:27:49.912Z,31
2015-02-21T12:27:59.902Z,31
2015-02-21T12:28:09.597Z,31
2015-02-21T12:28:22.181Z,31
2015-02-21T12:28:38.180Z,31
2015-02-21T12:28:49.590Z,31
2015-02-21T12:28:59.228Z,31
2015-02-21T12:29:12.287Z,31
2015-02-21T12:29:22.367Z,31
2015-02-21T12:29:32.008Z,31
2015-02-21T12:29:41.523Z,31
2015-02-21T12:29:51.509Z,31
2015-02-21T12:31:06.739Z,35
2015-02-21T12:31:16.381Z,33
2015-02-21T12:31:26.025Z,30
2015-02-21T12:31:35.602Z,30
2015-02-21T12:31:45.807Z,30
2015-02-21T12:31:56.863Z,30
2015-02-21T12:32:07.346Z,30
2015-02-21T12:32:18.126Z,30
2015-02-21T12:32:27.752Z,30
2015-02-21T12:32:37.479Z,30
2015-02-21T12:32:47.233Z,30
2015-02-21T12:32:56.983Z,30
2015-02-21T12:33:06.871Z,30
2015-02-21T12:33:17.628Z,30
2015-02-21T12:33:27.280Z,30
2015-02-21T12:33:39.881Z,30
2015-02-21T12:33:59.992Z,30
2015-02-21T12:34:10.696Z,30
2015-02-21T12:34:20.720Z,30
2015-02-21T12:34:35.361Z,30
2015-02-21T12:34:45.382Z,30
2015-02-21T12:34:59.838Z,30
2015-02-21T12:36:02.972Z,30
2015-02-21T12:36:16.820Z,30
2015-02-21T12:36:26.520Z,30
2015-02-21T12:36:36.087Z,30
2015-02-21T12:36:46.932Z,30
2015-02-21T12:36:56.637Z,30
2015-02-21T12:37:06.210Z,30
2015-02-21T12:37:16.171Z,30
2015-02-21T12:37:26.048Z,30
2015-02-21T12:37:35.998Z,30
2015-02-21T12:37:45.728Z,30
2015-02-21T12:37:55.359Z,30
2015-02-21T12:38:09.033Z,30
2015-02-21T12:38:20.685Z,30
2015-02-21T12:38:30.411Z,30
2015-02-21T12:38:40.004Z,30
2015-02-21T12:38:50.439Z,30
2015-02-21T12:39:00.718Z,31
2015-02-21T12:39:13.381Z,31
2015-02-21T12:39:23.139Z,31
2015-02-21T12:39:33.058Z,31
2015-02-21T12:39:43.461Z,31
2015-02-21T12:39:53.801Z,31
2015-02-21T12:40:06.607Z,31
2015-02-21T12:40:18.451Z,31
2015-02-21T12:40:28.254Z,31
2015-02-21T12:41:35.067Z,31
2015-02-21T12:41:44.836Z,31
2015-02-21T12:41:55.634Z,31
2015-02-21T12:42:06.125Z,31
2015-02-21T12:42:15.762Z,31
2015-02-21T12:42:25.492Z,31
2015-02-21T12:42:35.484Z,31
2015-02-21T12:42:45.111Z,31
2015-02-21T12:42:54.712Z,31
2015-02-21T12:43:06.105Z,31
2015-02-21T12:43:23.164Z,31
2015-02-21T12:43:32.808Z,31
2015-02-21T12:43:42.531Z,31
2015-02-21T12:43:52.317Z,31
2015-02-21T12:44:03.299Z,31
2015-02-21T12:44:12.846Z,31
2015-02-21T12:44:22.468Z,31
2015-02-21T12:44:32.113Z,31
2015-02-21T12:44:41.765Z,31
2015-02-21T12:44:51.720Z,31
2015-02-21T12:45:56.827Z,31
2015-02-21T12:46:08.275Z,31
2015-02-21T12:46:18.462Z,31
2015-02-21T12:46:28.071Z,31
2015-02-21T12:46:37.756Z,31
2015-02-21T12:46:50.446Z,31
2015-02-21T12:47:00.340Z,31
2015-02-21T12:47:14.070Z,31
2015-02-21T12:47:23.965Z,31
2015-02-21T12:47:33.812Z,31
2015-02-21T12:47:43.820Z,31
2015-02-21T12:47:53.373Z,31
2015-02-21T12:48:03.535Z,31
2015-02-21T12:48:25.664Z,31
2015-02-21T12:48:36.360Z,31
2015-02-21T12:48:45.889Z,31
2015-02-21T12:49:00.094Z,31
2015-02-21T12:49:17.622Z,31
2015-02-21T12:49:28.281Z,31
2015-02-21T12:49:37.914Z,31
2015-02-21T12:49:47.505Z,31
2015-02-21T12:50:52.508Z,31
2015-02-21T12:51:03.562Z,31
2015-02-21T12:51:13.303Z,31
2015-02-21T12:51:24.007Z,31
2015-02-21T12:51:33.626Z,31
2015-02-21T12:51:43.268Z,31
2015-02-21T12:51:52.863Z,31
2015-02-21T12:52:02.509Z,31
2015-02-21T12:52:12.071Z,31
2015-02-21T12:52:21.846Z,31
2015-02-21T12:52:32.414Z,31
2015-02-21T12:52:42.598Z,31
2015-02-21T12:52:52.198Z,31
2015-02-21T12:53:02.364Z,31
2015-02-21T12:53:11.974Z,31
2015-02-21T12:53:21.716Z,31
2015-02-21T12:53:31.433Z,31
2015-02-21T12:53:41.098Z,31
2015-02-21T12:53:50.848Z,31
2015-02-21T12:54:00.525Z,31
2015-02-21T12:54:10.511Z,31
2015-02-21T12:54:20.456Z,31
2015-02-21T12:54:30.577Z,31
2015-02-21T12:54:40.179Z,31
2015-02-21T12:54:49.895Z,31
2015-02-21T12:55:02.375Z,31
2015-02-21T12:55:17.690Z,31
2015-02-21T12:55:27.718Z,31
2015-02-21T12:55:37.474Z,31
2015-02-21T12:55:47.535Z,31
2015-02-21T12:55:59.249Z,31
2015-02-21T12:56:11.625Z,31
2015-02-21T12:56:24.926Z,31
2015-02-21T12:56:37.347Z,31
2015-02-21T12:56:47.619Z,31
2015-02-21T12:56:57.354Z,31
2015-02-21T12:57:06.951Z,31
2015-02-21T12:57:16.447Z,31
2015-02-21T12:57:26.076Z,31
2015-02-21T12:57:35.696Z,31
2015-02-21T12:57:46.366Z,32
2015-02-21T12:57:56.988Z,32
2015-02-21T12:58:08.306Z,32
2015-02-21T12:58:17.979Z,32
2015-02-21T12:58:27.901Z,32
2015-02-21T12:58:37.509Z,32
2015-02-21T12:58:47.184Z,32
2015-02-21T12:58:57.139Z,32
2015-02-21T12:59:13.826Z,32
2015-02-21T12:59:25.065Z,32
2015-02-21T12:59:34.796Z,31
2015-02-21T12:59:44.674Z,31
2015-02-21T13:00:46.747Z,31
2015-02-21T13:01:00.652Z,31
2015-02-21T13:01:15.308Z,31
2015-02-21T13:01:25.083Z,31
2015-02-21T13:01:36.758Z,31
2015-02-21T13:01:46.365Z,31
2015-02-21T13:01:56.635Z,31
2015-02-21T13:02:06.336Z,31
2015-02-21T13:02:16.040Z,31
2015-02-21T13:02:25.665Z,31
2015-02-21T13:02:35.782Z,31
2015-02-21T13:02:45.961Z,31
2015-02-21T13:02:55.719Z,31
2015-02-21T13:03:05.415Z,31
2015-02-21T13:03:15.007Z,31
2015-02-21T13:03:29.517Z,31
2015-02-21T13:03:44.936Z,31
2015-02-21T13:03:55.541Z,31
2015-02-21T13:04:05.225Z,31
2015-02-21T13:04:14.861Z,31
2015-02-21T13:04:24.428Z,31
2015-02-21T13:04:34.025Z,31
2015-02-21T13:04:43.615Z,31
2015-02-21T13:04:53.201Z,32
2015-02-21T13:05:09.198Z,31
2015-02-21T13:05:20.568Z,31
2015-02-21T13:05:31.860Z,31
2015-02-21T13:05:42.371Z,31
2015-02-21T13:05:51.991Z,31
2015-02-21T13:06:06.200Z,31
2015-02-21T13:06:15.777Z,31
2015-02-21T13:06:25.541Z,31
2015-02-21T13:06:35.221Z,31
2015-02-21T13:06:45.016Z,31
2015-02-21T13:06:54.662Z,31
2015-02-21T13:07:04.219Z,31
2015-02-21T13:07:14.232Z,31
2015-02-21T13:07:28.662Z,31
2015-02-21T13:07:38.721Z,31
2015-02-21T13:07:48.383Z,31
2015-02-21T13:07:59.183Z,32
2015-02-21T13:09:02.409Z,32
2015-02-21T13:09:12.376Z,30
2015-02-21T13:09:21.898Z,30
2015-02-21T13:09:31.620Z,31
2015-02-21T13:09:41.223Z,31
2015-02-21T13:09:50.841Z,31
2015-02-21T13:10:02.220Z,31
2015-02-21T13:10:16.135Z,30
2015-02-21T13:10:26.139Z,31
2015-02-21T13:11:32.814Z,31
2015-02-21T13:11:43.015Z,31
2015-02-21T13:11:52.662Z,31
2015-02-21T13:12:02.824Z,30
2015-02-21T13:12:12.492Z,31
2015-02-21T13:12:22.297Z,30
2015-02-21T13:12:32.804Z,30
2015-02-21T13:12:42.506Z,30
2015-02-21T13:12:52.880Z,30
2015-02-21T13:13:02.735Z,30
2015-02-21T13:13:12.530Z,31
2015-02-21T13:13:22.413Z,31
2015-02-21T13:13:32.213Z,31
2015-02-21T13:13:42.267Z,31
2015-02-21T13:13:51.868Z,31
2015-02-21T13:14:02.087Z,31
2015-02-21T13:14:11.712Z,30
2015-02-21T13:14:21.522Z,30
2015-02-21T13:14:31.007Z,30
2015-02-21T13:14:40.511Z,30
2015-02-21T13:14:50.725Z,30
2015-02-21T13:15:00.620Z,31
2015-02-21T13:15:14.944Z,31
2015-02-21T13:15:24.580Z,31
2015-02-21T13:15:34.219Z,31
2015-02-21T13:15:43.794Z,31
2015-02-21T13:15:53.430Z,31
2015-02-21T13:22:05.403Z,31
2015-02-21T13:22:15.974Z,31
2015-02-21T13:22:25.702Z,31
2015-02-21T13:22:35.391Z,31
2015-02-21T13:22:45.214Z,31
2015-02-21T13:22:54.964Z,31
2015-02-21T13:23:04.559Z,31
2015-02-21T13:23:14.137Z,31
2015-02-21T13:23:23.738Z,31
2015-02-21T13:23:33.288Z,31
2015-02-21T13:23:43.008Z,31
2015-02-21T13:23:52.772Z,31
2015-02-21T13:24:02.538Z,31
2015-02-21T13:24:12.540Z,31
2015-02-21T13:24:30.453Z,31
2015-02-21T13:24:40.371Z,31
2015-02-21T13:24:50.008Z,30
2015-02-21T13:25:00.179Z,30
2015-02-21T13:26:08.373Z,30
2015-02-21T13:26:18.562Z,30
2015-02-21T13:26:30.725Z,31
2015-02-21T13:26:46.986Z,31
2015-02-21T13:26:57.149Z,31
2015-02-21T13:27:07.057Z,31
2015-02-21T13:27:16.978Z,31
2015-02-21T13:27:27.847Z,31
2015-02-21T13:27:37.511Z,31
2015-02-21T20:40:27.354Z,38
2015-02-21T20:40:37.942Z,38
2015-02-21T20:40:48.198Z,38
2015-02-21T20:40:59.099Z,38
2015-02-21T20:41:09.527Z,38
2015-02-21T20:41:19.921Z,38
2015-02-21T20:41:30.265Z,38
2015-02-21T20:41:40.562Z,40
2015-02-21T20:41:50.894Z,40
2015-02-21T20:42:01.438Z,39
2015-02-21T20:42:11.756Z,39
2015-02-21T20:42:26.362Z,39
2015-02-21T20:42:36.769Z,39
2015-02-21T20:42:47.124Z,39
2015-02-21T20:42:57.701Z,39
2015-02-21T20:43:08.123Z,39
2015-02-21T20:43:18.586Z,39
2015-02-21T20:43:28.965Z,39
2015-02-21T20:43:39.312Z,40
2015-02-21T20:43:50.202Z,41
2015-02-21T20:44:01.557Z,40
2015-02-21T20:44:11.903Z,40
2015-02-21T20:44:22.528Z,39
2015-02-21T20:44:34.666Z,39
2015-02-21T20:44:45.414Z,39
2015-02-21T20:44:56.747Z,40
2015-02-21T20:46:09.220Z,39
2015-02-21T20:46:19.859Z,39
2015-02-21T20:46:30.066Z,39
2015-02-21T20:46:40.503Z,39
2015-02-21T20:47:01.237Z,39
2015-02-21T20:47:36.434Z,38
2015-02-21T20:47:50.946Z,38
2015-02-21T20:48:01.410Z,38
2015-02-21T20:48:11.785Z,38
2015-02-21T20:48:22.144Z,38
2015-02-21T20:48:32.581Z,39
2015-02-21T20:48:42.886Z,39
2015-02-21T20:49:45.604Z,39
2015-02-21T20:49:56.577Z,39
2015-02-21T20:50:13.416Z,39
2015-02-21T20:50:23.755Z,39
2015-02-21T20:50:35.000Z,39
2015-02-21T20:50:45.351Z,39
2015-02-21T20:50:56.334Z,39
2015-02-21T20:51:06.741Z,39
2015-02-21T20:51:17.093Z,39
2015-02-21T20:51:27.498Z,39
2015-02-21T20:51:38.789Z,39
2015-02-21T20:51:49.027Z,39
2015-02-21T20:52:00.004Z,39
2015-02-21T20:52:10.661Z,39
2015-02-21T20:52:21.634Z,39
2015-02-21T20:52:32.054Z,39
2015-02-21T20:52:42.458Z,39
2015-02-21T20:52:53.123Z,39
2015-02-21T20:53:03.986Z,39
2015-02-21T20:53:17.662Z,39
2015-02-21T20:53:28.166Z,39
2015-02-21T20:53:39.399Z,39
2015-02-21T20:53:50.224Z,40
2015-02-21T20:54:55.244Z,40
2015-02-21T20:55:13.963Z,40
2015-02-21T20:55:24.456Z,40
2015-02-21T20:55:34.780Z,40
2015-02-21T20:55:45.166Z,40
2015-02-21T20:55:55.533Z,40
2015-02-21T20:56:05.820Z,40
2015-02-21T20:56:16.157Z,40
2015-02-21T20:56:26.493Z,40
2015-02-21T20:56:36.753Z,40
2015-02-21T20:56:47.014Z,40
2015-02-21T20:56:57.599Z,40
2015-02-21T20:57:07.942Z,40
2015-02-21T20:57:18.314Z,40
2015-02-21T20:57:29.191Z,40
2015-02-21T20:57:39.575Z,40
2015-02-21T20:57:50.045Z,40
2015-02-21T20:58:01.182Z,40
2015-02-21T20:58:11.532Z,40
2015-02-21T20:58:28.218Z,40
2015-02-21T20:59:37.169Z,40
2015-02-21T20:59:47.509Z,40
2015-02-21T20:59:57.837Z,40
2015-02-21T21:01:03.387Z,40
2015-02-21T21:01:13.818Z,40
2015-02-21T21:01:24.668Z,40
2015-02-21T21:01:35.095Z,40
2015-02-21T21:01:46.484Z,40
2015-02-21T21:01:57.583Z,40
2015-02-21T21:02:10.972Z,40
2015-02-21T21:02:30.839Z,40
2015-02-21T21:02:43.729Z,40
2015-02-21T21:02:56.304Z,40
2015-02-21T21:03:08.728Z,40
2015-02-21T21:04:20.934Z,40
2015-02-21T21:04:36.194Z,40
2015-02-21T21:04:47.684Z,40
2015-02-21T21:05:16.040Z,40
2015-02-21T21:05:26.349Z,40
2015-02-21T21:06:42.021Z,40
2015-02-21T21:08:31.774Z,40
2015-02-21T21:08:42.080Z,40
2015-02-21T21:08:52.410Z,40
2015-02-21T21:09:04.062Z,40
2015-02-21T21:09:17.370Z,40
2015-02-21T21:09:27.703Z,40
2015-02-21T21:09:38.112Z,40
2015-02-21T21:09:48.368Z,40
2015-02-21T21:09:58.768Z,40
2015-02-21T21:11:03.249Z,40
2015-02-21T21:11:13.510Z,40
2015-02-21T21:11:23.901Z,39
2015-02-21T21:11:34.247Z,39
2015-02-21T21:11:44.474Z,39
2015-02-21T21:11:55.018Z,39
2015-02-21T21:12:05.346Z,39
2015-02-21T21:12:15.782Z,39
2015-02-21T21:12:26.115Z,39
2015-02-21T21:12:39.477Z,39
2015-02-21T21:12:49.769Z,39
2015-02-21T21:13:00.907Z,39
2015-02-21T21:13:11.319Z,39
2015-02-21T21:13:21.637Z,39
2015-02-21T21:13:32.027Z,39
2015-02-21T21:13:42.320Z,39
2015-02-21T21:13:52.658Z,39
2015-02-21T21:14:55.477Z,39
2015-02-21T21:15:14.496Z,39
2015-02-21T21:15:24.810Z,39
2015-02-21T21:15:35.185Z,39
2015-02-21T21:15:48.721Z,38
2015-02-21T21:16:00.271Z,39
2015-02-21T21:16:11.258Z,39
2015-02-21T21:16:21.586Z,39
2015-02-21T21:16:31.864Z,39
2015-02-21T21:16:42.230Z,38
2015-02-21T21:16:52.620Z,38
2015-02-21T21:17:55.512Z,38
2015-02-21T21:18:05.815Z,38
2015-02-21T21:18:16.157Z,38
2015-02-21T21:18:26.574Z,38
2015-02-21T21:18:36.941Z,38
2015-02-21T21:18:47.332Z,38
2015-02-21T21:19:51.411Z,38
2015-02-21T21:20:05.722Z,38
2015-02-21T21:21:15.866Z,38
2015-02-21T21:21:26.150Z,38
2015-02-21T21:21:36.512Z,38
2015-02-21T21:21:46.880Z,38
2015-02-21T21:22:01.332Z,38
2015-02-21T21:22:11.741Z,38
2015-02-21T21:22:22.068Z,38
2015-02-21T21:22:32.468Z,38
2015-02-21T21:22:42.767Z,38
2015-02-21T21:22:53.138Z,38
2015-02-21T21:23:04.162Z,38
2015-02-21T21:23:14.504Z,38
2015-02-21T21:23:24.844Z,38
2015-02-21T21:23:42.313Z,38
2015-02-21T21:23:52.591Z,38
2015-02-21T21:24:55.562Z,38
2015-02-21T21:25:59.288Z,38
2015-02-21T21:26:09.702Z,37
2015-02-21T21:26:20.098Z,35
2015-02-21T21:26:30.794Z,34
2015-02-21T21:26:41.127Z,34
2015-02-21T21:27:01.997Z,33
2015-02-21T21:27:12.318Z,33
2015-02-21T21:27:22.662Z,33
2015-02-21T21:27:33.071Z,33
2015-02-21T21:27:49.886Z,33
2015-02-21T21:28:00.963Z,33
2015-02-21T21:28:11.532Z,33
2015-02-21T21:28:21.999Z,33
2015-02-21T21:28:32.368Z,33
2015-02-21T21:28:42.685Z,33
2015-02-21T21:28:52.996Z,33
2015-02-21T21:29:03.626Z,33
2015-02-21T21:29:14.021Z,33
2015-02-21T21:29:24.417Z,33
2015-02-21T21:29:34.886Z,33
2015-02-21T21:29:45.185Z,33
2015-02-21T21:29:55.556Z,33
2015-02-21T21:30:59.368Z,33
2015-02-21T21:31:16.297Z,33
2015-02-21T21:31:27.391Z,33
2015-02-21T21:31:39.280Z,32
2015-02-21T21:31:50.891Z,32
2015-02-21T21:32:01.931Z,32
2015-02-21T21:32:13.023Z,32
2015-02-21T21:32:23.958Z,32
2015-02-21T21:32:35.008Z,32
2015-02-21T21:32:45.900Z,32
2015-02-21T21:33:00.115Z,32
2015-02-21T21:33:10.889Z,32
2015-02-21T21:33:21.524Z,32
2015-02-21T21:33:32.628Z,32
2015-02-21T21:33:47.626Z,32
2015-02-21T21:33:59.903Z,32
2015-02-21T21:34:10.662Z,32
2015-02-21T21:34:21.569Z,32
2015-02-21T21:34:32.901Z,32
2015-02-21T21:34:43.370Z,32
2015-02-21T21:34:55.096Z,32
2015-02-21T21:35:15.128Z,32
2015-02-21T21:35:26.242Z,32
2015-02-21T21:35:38.096Z,32
2015-02-21T21:35:50.953Z,32
2015-02-21T21:36:02.502Z,32
2015-02-21T21:36:12.991Z,32
2015-02-21T21:36:25.051Z,32
2015-02-21T21:36:36.278Z,32
2015-02-21T21:36:47.068Z,32
2015-02-21T21:36:59.167Z,32
2015-02-21T21:37:10.400Z,32
2015-02-21T21:37:29.070Z,32
2015-02-21T21:37:48.357Z,32
2015-02-21T21:38:00.960Z,32
2015-02-21T21:38:12.981Z,32
2015-02-21T21:38:24.953Z,32
2015-02-21T21:38:36.082Z,32
2015-02-21T21:38:58.304Z,32
2015-02-21T21:41:03.532Z,32
